Latest Weather Observations for Mallacoota

IDV60801

Issued at 4:05 pm EDT Sunday 26 October 2014 (issued every 30 minutes, with the page automatically refreshed every 10 minutes)

About weather observations | Map of weather stations | Latest weather observations for VIC | Other Formats
Station Details ID: 084084 Name: MALLACOOTA Lat: -37.60 Lon: 149.73 Height: 22.0 m
Data from the previous 72 hours. | See also: Recent months at Mallacoota
Date/Time
EDT
Temp
°C
App
Temp
°C
Dew
Point
Rel
Hum
%
Delta-T
°C
Wind Press
QNH
hPa
Press
MSL
hPa
Rain
since 9 am
mm
Dir
 
Spd
km/h
Gust
km/h
Spd
kts
Gust
kts
26/04:00pm 16.1 13.4 13.0 82 1.7 S 19 30 10 16 1011.7 - 0.2
26/03:30pm 17.1 15.9 12.8 76 2.4 SSW 11 20 6 11 1011.7 - 0.2
26/03:00pm 16.2 13.4 12.6 79 2.0 SW 19 28 10 15 1012.0 1012.0 0.2
26/02:30pm 16.6 13.7 12.2 75 2.4 SSW 19 30 10 16 1011.9 - 0.2
26/02:00pm 16.1 13.6 13.6 85 1.4 SSW 19 28 10 15 1012.4 - 0.2
26/01:30pm 15.2 12.7 13.6 90 0.9 SSW 19 28 10 15 1012.6 - 0.2
26/01:00pm 16.1 13.9 14.3 89 1.0 SSW 19 26 10 14 1012.4 - 0.2
26/12:30pm 15.8 14.8 14.5 92 0.7 SSW 13 22 7 12 1012.3 - 0.2
26/12:00pm 15.6 13.8 14.5 93 0.6 SSW 17 24 9 13 1012.5 1012.5 0.2
26/11:30am 15.9 15.0 14.9 94 0.6 SSW 13 20 7 11 1012.6 - 0.2
26/11:00am 15.6 15.1 14.8 95 0.5 SW 11 17 6 9 1012.5 - 0.2
26/10:30am 15.4 14.8 14.6 95 0.5 S 11 15 6 8 1012.5 - 0.2
26/10:00am 15.4 15.2 14.6 95 0.5 S 9 11 5 6 1012.6 - 0.2
26/09:30am 15.3 15.0 14.5 95 0.5 SSW 9 15 5 8 1012.4 - 0.2
26/09:00am 15.2 15.3 14.4 95 0.5 SSW 7 11 4 6 1012.6 1012.6 0.8
26/08:30am 15.0 15.0 14.2 95 0.5 SW 7 9 4 5 1012.4 - 0.8
26/08:00am 14.9 14.9 14.1 95 0.5 SW 7 9 4 5 1012.3 - 0.6
26/07:30am 14.7 15.2 13.9 95 0.4 W 4 6 2 3 1011.9 - 0.6
26/07:00am 14.4 14.4 13.6 95 0.4 WNW 6 7 3 4 1011.8 - 0.6
26/06:30am 14.3 15.0 13.5 95 0.4 WSW 2 6 1 3 1012.0 - 0.6
26/06:00am 14.3 14.2 13.3 94 0.6 SW 6 9 3 5 1012.1 1012.1 0.4
26/05:30am 14.3 14.2 13.3 94 0.6 SW 6 7 3 4 1011.7 - 0.4
26/05:00am 14.3 14.2 13.3 94 0.6 SW 6 7 3 4 1012.0 - 0.4
26/04:30am 14.3 15.3 13.3 94 0.6 CALM 0 0 0 0 1011.9 - 0.4
26/04:00am 14.4 15.5 13.4 94 0.6 CALM 0 0 0 0 1011.9 - 0.4
26/03:30am 14.4 15.5 13.4 94 0.6 CALM 0 0 0 0 1012.4 - 0.2
26/03:00am 14.4 15.4 13.3 93 0.6 CALM 0 0 0 0 1012.8 1012.8 0.2
26/02:30am 14.4 15.4 13.3 93 0.6 CALM 0 0 0 0 1013.1 - 0.0
26/02:00am 14.3 15.2 13.0 92 0.7 CALM 0 0 0 0 1013.7 - 0.0
26/01:30am 14.2 15.1 12.9 92 0.7 CALM 0 0 0 0 1014.1 - 0.0
26/01:00am 14.3 15.2 12.9 91 0.8 CALM 0 0 0 0 1014.7 - 0.0
26/12:30am 14.3 15.1 12.7 90 0.9 CALM 0 0 0 0 1015.5 - 0.0
26/12:00am 14.5 15.3 12.7 89 1.0 SE 0 0 0 0 1015.6 1015.6 0.0
 
Date/Time
EDT
Temp
°C
App
Temp
°C
Dew
Point
Rel
Hum
%
Delta-T
°C
Wind Press
QNH
hPa
Press
MSL
hPa
Rain
since 9 am
mm
Dir
 
Spd
km/h
Gust
km/h
Spd
kts
Gust
kts
25/11:30pm 14.5 14.6 12.7 89 1.0 ESE 4 6 2 3 1015.8 - 0.0
25/11:00pm 14.5 14.1 12.5 88 1.1 ESE 6 9 3 5 1016.0 - 0.0
25/10:30pm 14.7 15.1 12.6 87 1.1 SSE 2 7 1 4 1016.3 - 0.0
25/10:00pm 14.7 14.3 12.4 86 1.3 ESE 6 9 3 5 1016.4 - 0.0
25/09:30pm 15.1 14.5 12.4 84 1.5 SE 7 11 4 6 1016.6 - 0.0
25/09:00pm 15.3 14.8 12.2 82 1.7 SE 6 9 3 5 1016.6 1016.6 0.0
25/08:30pm 15.4 16.1 12.3 82 1.7 CALM 0 0 0 0 1016.5 - 0.0
25/08:00pm 15.4 15.4 12.3 82 1.7 SSE 4 7 2 4 1016.2 - 0.0
25/07:30pm 15.4 14.9 12.2 81 1.7 SSE 6 11 3 6 1015.5 - 0.0
25/07:00pm 15.4 14.4 12.2 81 1.7 S 9 17 5 9 1015.6 - 0.0
25/06:30pm 15.6 15.0 12.4 81 1.8 S 7 13 4 7 1015.9 - 0.0
25/06:00pm 15.9 15.4 12.6 81 1.8 SSE 7 9 4 5 1015.3 1015.3 0.0
25/05:30pm 15.9 15.1 12.8 82 1.7 S 9 15 5 8 1015.5 - 0.0
25/05:00pm 15.7 13.6 12.5 81 1.8 S 15 17 8 9 1015.0 - 0.0
25/04:30pm 15.8 13.8 12.7 82 1.7 S 15 19 8 10 1014.9 - 0.0
25/04:00pm 17.0 15.0 13.9 82 1.8 S 17 22 9 12 1015.0 - 0.0
25/03:30pm 15.9 13.1 12.5 80 1.9 S 19 22 10 12 1015.4 - 0.0
25/03:00pm 16.1 12.7 12.5 79 2.0 S 22 28 12 15 1015.3 1015.3 0.0
25/02:30pm 16.6 13.4 13.1 80 2.0 S 22 33 12 18 1015.7 - 0.0
25/02:00pm 16.8 13.2 12.9 78 2.2 S 24 32 13 17 1016.0 - 0.0
25/01:30pm 16.9 12.9 13.0 78 2.2 S 26 39 14 21 1016.0 - 0.0
25/01:00pm 16.5 12.4 12.8 79 2.1 S 26 35 14 19 1016.1 - 0.0
25/12:30pm 16.2 12.8 12.4 78 2.1 S 22 33 12 18 1016.4 - 0.0
25/12:00pm 16.5 14.3 13.2 81 1.8 S 17 26 9 14 1016.7 1016.7 0.0
25/11:30am 17.3 15.9 13.4 78 2.2 SSW 13 20 7 11 1017.0 - 0.0
25/11:00am 17.4 16.0 13.5 78 2.2 SSW 13 20 7 11 1017.0 - 0.0
25/10:30am 16.7 15.2 13.0 79 2.1 SW 13 20 7 11 1017.1 - 0.0
25/10:00am 16.7 15.2 13.2 80 2.0 SW 13 20 7 11 1016.8 - 0.0
25/09:30am 16.1 14.6 13.0 82 1.7 SW 13 20 7 11 1017.0 - 0.0
25/09:00am 16.1 14.9 12.8 81 1.8 SW 11 17 6 9 1017.0 1017.0 0.0
25/08:30am 15.9 15.1 12.8 82 1.7 SW 9 17 5 9 1016.9 - 0.0
25/08:00am 15.8 14.7 13.1 84 1.5 WSW 11 19 6 10 1016.8 - 0.0
25/07:30am 15.6 14.4 12.9 84 1.5 SW 11 20 6 11 1016.4 - 0.0
25/07:00am 15.6 14.0 12.9 84 1.5 SW 13 22 7 12 1016.0 - 0.0
25/06:30am 15.9 14.9 13.4 85 1.4 SW 11 20 6 11 1015.8 - 0.0
25/06:00am 15.9 14.5 13.4 85 1.4 SW 13 24 7 13 1015.4 1015.4 0.0
25/05:30am 15.6 14.9 13.1 85 1.4 SW 9 15 5 8 1014.9 - 0.0
25/05:00am 15.5 15.0 12.8 84 1.5 SW 7 13 4 7 1014.4 - 0.0
25/04:30am 16.0 15.6 12.9 82 1.7 W 7 11 4 6 1013.9 - 0.0
25/04:00am 16.4 15.7 13.1 81 1.8 W 9 15 5 8 1014.0 - 0.0
25/03:30am 16.8 16.2 12.3 75 2.5 WSW 7 13 4 7 1013.5 - 0.0
25/03:00am 17.8 16.1 12.5 71 2.9 WSW 13 24 7 13 1013.3 1013.3 0.0
25/02:30am 17.6 16.2 13.3 76 2.4 WSW 13 19 7 10 1013.2 - 0.0
25/02:00am 15.7 16.0 14.4 92 0.7 WNW 6 11 3 6 1012.9 - 0.0
25/01:30am 15.6 16.2 14.3 92 0.7 NW 4 7 2 4 1012.8 - 0.0
25/01:00am 15.9 17.4 14.6 92 0.7 CALM 0 4 0 2 1012.6 - 0.0
25/12:30am 16.1 16.5 14.8 92 0.7 SSW 6 7 3 4 1012.5 - 0.0
25/12:00am 17.3 18.0 16.0 92 0.8 NW 7 9 4 5 1012.3 1012.3 0.0
 
Date/Time
EDT
Temp
°C
App
Temp
°C
Dew
Point
Rel
Hum
%
Delta-T
°C
Wind Press
QNH
hPa
Press
MSL
hPa
Rain
since 9 am
mm
Dir
 
Spd
km/h
Gust
km/h
Spd
kts
Gust
kts
24/11:30pm 17.1 17.6 15.6 91 0.9 N 7 9 4 5 1012.0 - 0.0
24/11:00pm 17.4 18.0 15.7 90 1.0 N 7 9 4 5 1011.9 - 0.0
24/10:30pm 17.4 18.0 15.4 88 1.2 N 6 7 3 4 1011.9 - 0.0
24/10:00pm 17.8 18.5 15.6 87 1.3 NNW 6 7 3 4 1011.8 - 0.0
24/09:30pm 18.6 19.3 16.0 85 1.5 NNW 7 11 4 6 1011.8 - 0.0
24/09:00pm 19.3 20.1 16.3 83 1.8 N 7 11 4 6 1011.5 1011.5 0.0
24/08:30pm 19.9 20.0 16.5 81 2.0 N 11 17 6 9 1011.2 - 0.0
24/08:00pm 20.4 20.4 16.2 77 2.5 N 11 19 6 10 1011.1 - 0.0
24/07:30pm 21.1 21.0 15.9 72 3.1 NNW 11 17 6 9 1010.4 - 0.0
24/07:00pm 21.7 21.2 15.8 69 3.5 N 13 20 7 11 1010.5 - 0.0
24/06:30pm 22.3 21.5 15.2 64 4.2 N 13 19 7 10 1010.3 - 0.0
24/06:00pm 23.1 23.1 15.2 61 4.7 N 9 13 5 7 1010.3 1010.3 0.0
24/05:30pm 23.7 22.2 15.2 59 5.1 N 17 26 9 14 1009.7 - 0.0
24/05:00pm 24.0 21.5 15.2 58 5.3 NNE 22 30 12 16 1009.7 - 0.0
24/04:30pm 25.1 21.7 14.8 52 6.2 NNE 26 39 14 21 1009.8 - 0.0
24/04:00pm 25.6 24.1 16.2 56 5.8 NNE 19 28 10 15 1009.9 - 0.0
24/03:30pm 25.4 22.9 15.1 53 6.2 NNE 22 32 12 17 1010.1 - 0.0
24/03:00pm 26.3 24.0 15.7 52 6.5 NNE 22 32 12 17 1010.4 1010.4 0.0
24/02:30pm 25.5 23.0 15.2 53 6.2 NNE 22 32 12 17 1010.7 - 0.0
24/02:00pm 25.8 23.5 15.8 54 6.1 NNE 22 33 12 18 1011.2 - 0.0
24/01:30pm 24.9 22.2 15.5 56 5.7 NNE 24 37 13 20 1011.7 - 0.0
24/01:00pm 24.7 22.8 16.7 61 4.9 NNE 22 33 12 18 1012.0 - 0.0
24/12:30pm 23.1 20.8 15.7 63 4.5 NNE 22 32 12 17 1012.5 - 0.0
24/12:00pm 22.8 21.0 15.9 65 4.2 NNE 20 26 11 14 1013.2 1013.2 0.0
24/11:30am 22.5 22.0 16.8 70 3.5 NE 15 30 8 16 1013.7 - 0.0
24/11:00am 23.0 22.3 16.3 66 4.1 NE 15 24 8 13 1014.3 - 0.0
24/10:30am 21.7 20.8 15.8 69 3.5 NNE 15 24 8 13 1014.9 - 0.0
24/10:00am 21.3 21.0 16.5 74 2.9 NE 13 20 7 11 1015.5 - 0.0
24/09:30am 20.7 20.3 16.3 76 2.7 NE 13 19 7 10 1015.9 - 0.0
24/09:00am 20.3 19.6 16.5 79 2.3 NNE 15 20 8 11 1016.2 1016.2 1.8
24/08:30am 19.0 18.6 16.2 84 1.7 NNE 13 19 7 10 1016.6 - 1.8
24/08:00am 18.7 17.8 16.8 89 1.1 NNE 17 22 9 12 1016.7 - 1.8
24/07:30am 17.9 18.1 16.8 93 0.7 N 11 17 6 9 1016.8 - 1.8
24/07:00am 17.5 17.2 16.4 93 0.7 N 13 19 7 10 1016.8 - 1.8
24/06:30am 17.0 17.7 16.0 94 0.6 NNE 7 9 4 5 1016.7 - 1.8
24/06:00am 17.0 17.3 15.9 93 0.6 N 9 15 5 8 1016.6 1016.6 1.8
24/05:30am 16.7 16.5 15.6 93 0.6 NNE 11 13 6 7 1016.5 - 1.8
24/05:00am 16.6 16.7 15.5 93 0.6 NNE 9 13 5 7 1016.5 - 0.0
24/04:30am 16.6 16.7 15.5 93 0.6 NNE 9 11 5 6 1016.7 - 0.0
24/04:00am 16.0 16.8 14.7 92 0.7 ENE 4 7 2 4 1017.1 - 0.0
24/03:30am 16.3 17.5 15.0 92 0.8 NNW 2 7 1 4 1017.7 - 0.0
24/03:00am 16.4 16.9 15.1 92 0.8 NNW 6 7 3 4 1018.2 1018.2 0.0
24/02:30am 16.4 16.9 15.1 92 0.8 NNW 6 7 3 4 1018.3 - 0.0
24/02:00am 16.4 16.7 15.1 92 0.8 N 7 7 4 4 1018.6 - 0.0
24/01:30am 16.6 17.0 15.3 92 0.8 N 7 11 4 6 1018.9 - 0.0
24/01:00am 16.7 16.8 15.6 93 0.6 NNW 9 13 5 7 1019.4 - 0.0
24/12:30am 16.7 17.2 15.6 93 0.6 N 7 11 4 6 1019.7 - 0.0
24/12:00am 16.7 17.2 15.6 93 0.6 N 7 11 4 6 1019.8 1019.8 0.0
 
Date/Time
EDT
Temp
°C
App
Temp
°C
Dew
Point
Rel
Hum
%
Delta-T
°C
Wind Press
QNH
hPa
Press
MSL
hPa
Rain
since 9 am
mm
Dir
 
Spd
km/h
Gust
km/h
Spd
kts
Gust
kts
23/11:30pm 16.5 17.1 15.2 92 0.8 NNW 6 9 3 5 1019.9 - 0.0
23/11:00pm 16.5 18.2 15.2 92 0.8 CALM 0 0 0 0 1020.0 - 0.0
23/10:30pm 16.4 17.3 15.1 92 0.8 WNW 4 7 2 4 1020.2 - 0.0
23/10:00pm 16.1 17.3 14.8 92 0.7 W 2 7 1 4 1020.0 - 0.0
23/09:30pm 16.2 16.4 14.7 91 0.9 SSW 7 9 4 5 1019.7 - 0.0
23/09:00pm 16.7 17.2 15.1 90 0.9 NE 6 9 3 5 1019.4 1019.4 0.0
23/08:30pm 17.3 18.4 15.6 90 1.0 W 4 6 2 3 1020.1 - 0.0
23/08:00pm 17.2 17.3 15.5 90 1.0 WNW 9 11 5 6 1020.4 - 0.0
23/07:30pm 17.1 17.7 15.4 90 1.0 SW 6 7 3 4 1019.6 - 0.0
23/07:00pm 17.1 17.1 15.3 89 1.0 S 9 13 5 7 1019.1 - 0.0
23/06:30pm 17.3 17.8 15.5 89 1.1 SSW 7 13 4 7 1019.3 - 0.0
23/06:00pm 17.4 17.5 15.4 88 1.2 S 9 13 5 7 1019.2 1019.2 0.0
23/05:30pm 17.4 17.1 15.4 88 1.2 S 11 17 6 9 1019.3 - 0.0
23/05:00pm 17.6 17.3 15.4 87 1.3 S 11 19 6 10 1019.2 - 0.0
23/04:30pm 17.9 17.2 15.5 86 1.4 S 13 19 7 10 1019.1 - 0.0

Other Formats:

Comma delimited format used in spreadsheet applications
http://www.bom.gov.au/fwo/IDV60801/IDV60801.94935.axf

JavaScript Object Notation format (JSON) in row-major order
http://www.bom.gov.au/fwo/IDV60801/IDV60801.94935.json